Terminal Aerodrome Forecast
Issued by NWS Milwaukee/Sullivan, WI

Home | Current Version | Previous Version | Text Only | Print | Product List | Glossary On
Versions: 1 2 3 4 5 6 7 8 9 10 11 12 13 14 15 16 17 18 19 20 21 22 23 24 25 26 27 28 29 30 31 32 33 34 35 36 37 38 39 40 41 42 43 44 45 46 47 48 49 50
031
FTUS43 KMKX 250816 AAA
TAFMSN
TAF AMD
KMSN 250816Z 2508/2606 01011KT P6SM OVC009
     FM251600 01009KT P6SM SCT009 BKN017
     FM251800 01007KT P6SM BKN040
     FM260200 VRB03KT P6SM SCT070
     FM260500 VRB03KT P6SM BKN120=

USA.gov is the U.S. government's official web portal to all federal, state and local government web resources and services.